createdAt,value
2022-08-17T00:00:34.965Z,22.06
2022-08-17T00:05:44.207Z,22.00
2022-08-17T00:10:47.524Z,21.92
2022-08-17T00:15:50.111Z,21.85
2022-08-17T00:20:54.181Z,21.80
2022-08-17T00:25:56.601Z,21.76
2022-08-17T00:30:59.289Z,21.69
2022-08-17T00:36:02.519Z,21.66
2022-08-17T00:41:10.708Z,21.67
2022-08-17T00:46:18.181Z,21.74
2022-08-17T00:51:25.465Z,21.83
2022-08-17T00:56:34.356Z,21.87
2022-08-17T01:01:37.955Z,21.84
2022-08-17T01:06:42.014Z,21.85
2022-08-17T01:11:46.314Z,21.87
2022-08-17T01:16:50.598Z,21.83
2022-08-17T01:22:03.102Z,21.79
2022-08-17T01:27:10.470Z,21.70
2022-08-17T01:32:14.301Z,21.68
2022-08-17T01:37:18.150Z,21.70
2022-08-17T01:42:29.368Z,21.75
2022-08-17T01:47:32.312Z,21.73
2022-08-17T01:52:39.419Z,21.63
2022-08-17T01:57:45.353Z,21.56
2022-08-17T02:02:48.092Z,21.52
2022-08-17T02:08:00.644Z,21.54
2022-08-17T02:13:04.343Z,21.62
2022-08-17T02:18:09.091Z,21.64
2022-08-17T02:23:13.599Z,21.64
2022-08-17T02:28:17.377Z,21.62
2022-08-17T02:33:20.798Z,21.60
2022-08-17T02:38:24.029Z,21.59
2022-08-17T02:43:27.536Z,21.60
2022-08-17T02:48:31.948Z,21.63
2022-08-17T02:53:35.785Z,21.65
2022-08-17T02:58:38.835Z,21.65
2022-08-17T03:03:42.123Z,21.68
2022-08-17T03:08:44.574Z,21.68
2022-08-17T03:13:46.974Z,21.63
2022-08-17T03:18:49.386Z,21.57
2022-08-17T03:23:54.736Z,21.49
2022-08-17T03:28:57.242Z,21.41
2022-08-17T03:34:00.908Z,21.34
2022-08-17T03:39:04.670Z,21.28
2022-08-17T03:44:07.163Z,21.21
2022-08-17T03:49:12.617Z,21.12
2022-08-17T03:54:17.986Z,21.09
2022-08-17T03:59:22.671Z,21.11
2022-08-17T04:04:27.608Z,21.14
2022-08-17T04:09:30.921Z,21.12
2022-08-17T04:14:39.287Z,21.11
2022-08-17T04:19:55.376Z,21.20
2022-08-17T04:24:57.893Z,21.34
2022-08-17T04:30:01.958Z,21.51
2022-08-17T04:35:04.724Z,21.66
2022-08-17T04:40:10.641Z,21.80
2022-08-17T04:45:13.066Z,21.99
2022-08-17T04:50:16.877Z,22.20
2022-08-17T04:55:19.293Z,22.43
2022-08-17T05:00:21.744Z,22.67
2022-08-17T05:05:27.648Z,22.88
2022-08-17T05:10:33.881Z,23.06
2022-08-17T05:15:45.204Z,23.25
2022-08-17T05:20:50.318Z,23.46
2022-08-17T05:25:56.307Z,23.63
2022-08-17T05:31:01.555Z,23.77
2022-08-17T05:43:24.674Z,24.20
2022-08-17T05:48:35.554Z,24.36
2022-08-17T05:53:43.574Z,24.48
2022-08-17T05:58:46.899Z,24.67
2022-08-17T06:03:55.378Z,25.03
2022-08-17T06:09:05.684Z,25.39
2022-08-17T06:14:20.672Z,25.75
2022-08-17T06:19:22.989Z,26.01
2022-08-17T06:24:31.240Z,26.25
2022-08-17T06:29:48.246Z,26.47
2022-08-17T06:34:51.779Z,26.73
2022-08-17T06:40:22.594Z,26.89
2022-08-17T06:45:31.153Z,26.94
2022-08-17T06:50:44.087Z,27.05
2022-08-17T06:55:53.845Z,27.22
2022-08-17T07:01:00.743Z,27.41
2022-08-17T07:06:10.963Z,27.59
2022-08-17T07:11:19.156Z,27.75
2022-08-17T07:16:30.384Z,27.89
2022-08-17T07:21:43.385Z,27.91
2022-08-17T07:26:46.517Z,28.00
2022-08-17T07:31:48.998Z,28.13
2022-08-17T07:37:05.110Z,28.25
2022-08-17T07:42:10.157Z,28.37
2022-08-17T07:47:19.118Z,28.32
2022-08-17T07:52:51.365Z,28.22
2022-08-17T07:57:57.176Z,28.17
2022-08-17T08:03:14.573Z,28.26
2022-08-17T08:08:25.796Z,28.47
2022-08-17T08:13:30.140Z,28.68
2022-08-17T08:18:54.169Z,28.91
2022-08-17T08:24:09.487Z,29.08
2022-08-17T08:29:28.277Z,29.17
2022-08-17T08:35:02.098Z,29.37
2022-08-17T08:40:10.820Z,29.48
2022-08-17T08:45:23.964Z,29.65
2022-08-17T08:50:38.145Z,29.75
2022-08-17T08:55:46.857Z,29.93
2022-08-17T09:00:54.493Z,30.24
2022-08-17T09:06:06.712Z,30.71
2022-08-17T09:12:02.082Z,31.14
2022-08-17T09:17:12.549Z,30.98
2022-08-17T09:22:30.317Z,30.89
2022-08-17T09:27:47.515Z,30.62
2022-08-17T09:32:58.733Z,30.62
2022-08-17T09:38:13.118Z,31.22
2022-08-17T09:43:27.493Z,31.88
2022-08-17T09:48:38.856Z,32.24
2022-08-17T09:53:44.555Z,32.64
2022-08-17T09:59:01.891Z,33.00
2022-08-17T10:04:08.713Z,32.98
2022-08-17T10:09:20.312Z,33.02
2022-08-17T10:14:36.284Z,33.06
2022-08-17T10:19:49.194Z,33.05
2022-08-17T10:25:21.507Z,32.84
2022-08-17T10:30:24.910Z,32.67
2022-08-17T10:35:30.218Z,32.97
2022-08-17T10:40:37.955Z,32.77
2022-08-17T10:46:50.064Z,32.48
2022-08-17T10:51:57.150Z,32.43
2022-08-17T10:56:59.719Z,32.89
2022-08-17T11:02:12.107Z,33.27
2022-08-17T11:07:29.098Z,33.82
2022-08-17T11:12:33.448Z,34.24
2022-08-17T11:17:41.700Z,34.51
2022-08-17T11:23:03.966Z,34.89
2022-08-17T11:28:18.034Z,35.13
2022-08-17T11:33:44.744Z,34.79
2022-08-17T11:38:57.781Z,34.12
2022-08-17T11:44:10.292Z,34.40
2022-08-17T11:49:38.944Z,35.10
2022-08-17T11:54:45.679Z,35.73
2022-08-17T11:59:48.100Z,36.18
2022-08-17T12:04:57.525Z,36.26
2022-08-17T12:10:00.932Z,36.13
2022-08-17T12:15:10.585Z,36.38
2022-08-17T12:20:16.096Z,36.51
2022-08-17T12:25:32.796Z,36.49
2022-08-17T12:30:36.179Z,36.68
2022-08-17T12:35:38.952Z,36.78
2022-08-17T12:40:54.432Z,36.23
2022-08-17T12:46:01.291Z,35.45
2022-08-17T12:51:18.092Z,34.90
2022-08-17T12:56:20.844Z,34.51
2022-08-17T13:01:25.135Z,34.27
2022-08-17T13:06:33.128Z,34.24
2022-08-17T13:11:35.644Z,34.34
2022-08-17T13:16:38.240Z,34.29
2022-08-17T13:21:45.847Z,34.04
2022-08-17T13:26:54.357Z,33.83
2022-08-17T13:32:04.285Z,33.85
2022-08-17T13:37:18.287Z,34.17
2022-08-17T13:42:29.384Z,34.18
2022-08-17T13:47:34.211Z,34.33
2022-08-17T13:52:42.946Z,34.44
2022-08-17T13:57:50.329Z,34.61
2022-08-17T14:03:09.205Z,35.10
2022-08-17T14:08:12.951Z,36.28
2022-08-17T14:13:15.300Z,37.09
2022-08-17T14:18:55.634Z,37.12
2022-08-17T14:23:43.609Z,36.18
2022-08-17T14:28:54.635Z,35.21
2022-08-17T14:33:58.943Z,34.37
2022-08-17T14:39:01.248Z,33.60
2022-08-17T14:44:04.171Z,33.21
2022-08-17T14:49:07.292Z,33.03
2022-08-17T14:54:09.830Z,33.37
2022-08-17T14:59:12.396Z,33.32
2022-08-17T15:04:18.337Z,33.22
2022-08-17T15:09:20.703Z,33.17
2022-08-17T15:14:24.499Z,33.22
2022-08-17T15:19:26.830Z,33.28
2022-08-17T15:24:29.136Z,33.31
2022-08-17T15:29:31.437Z,33.31
2022-08-17T15:34:33.793Z,33.22
2022-08-17T15:39:36.190Z,33.96
2022-08-17T15:44:39.436Z,34.69
2022-08-17T15:49:42.860Z,34.05
2022-08-17T15:54:49.087Z,33.68
2022-08-17T15:59:55.293Z,33.84
2022-08-17T16:05:02.062Z,35.28
2022-08-17T16:10:06.131Z,35.86
2022-08-17T16:15:08.768Z,36.59
2022-08-17T16:20:19.514Z,37.24
2022-08-17T16:25:38.877Z,36.45
2022-08-17T16:30:47.405Z,35.40
2022-08-17T16:35:49.675Z,34.40
2022-08-17T16:40:51.991Z,33.45
2022-08-17T16:45:54.460Z,32.51
2022-08-17T16:50:58.552Z,31.79
2022-08-17T16:56:07.293Z,31.15
2022-08-17T17:01:09.662Z,30.64
2022-08-17T17:06:13.511Z,30.20
2022-08-17T17:11:21.512Z,29.85
2022-08-17T17:16:33.041Z,29.51
2022-08-17T17:21:38.265Z,29.25
2022-08-17T17:26:40.625Z,28.95
2022-08-17T17:31:47.989Z,28.69
2022-08-17T17:36:52.503Z,28.38
2022-08-17T17:41:57.243Z,28.05
2022-08-17T17:47:00.785Z,27.76
2022-08-17T17:52:13.154Z,27.54
2022-08-17T17:57:21.493Z,27.30
2022-08-17T18:02:37.394Z,27.09
2022-08-17T18:07:44.367Z,26.85
2022-08-17T18:12:57.907Z,26.62
2022-08-17T18:18:20.426Z,26.42
2022-08-17T18:23:28.071Z,26.22
2022-08-17T18:28:33.820Z,26.04
2022-08-17T18:33:38.117Z,25.92
2022-08-17T18:38:41.889Z,25.80
2022-08-17T18:43:53.011Z,25.71
2022-08-17T18:48:59.228Z,25.63
2022-08-17T18:54:04.866Z,25.54
2022-08-17T18:59:07.231Z,25.40
2022-08-17T19:04:12.991Z,25.24
2022-08-17T19:09:18.291Z,25.09
2022-08-17T19:14:21.124Z,24.95
2022-08-17T19:19:28.205Z,24.80
2022-08-17T19:24:31.469Z,24.62
2022-08-17T19:29:39.455Z,24.47
2022-08-17T19:34:44.320Z,24.33
2022-08-17T19:39:49.613Z,24.21
2022-08-17T19:44:59.440Z,24.14
2022-08-17T19:50:08.827Z,24.01
2022-08-17T19:55:19.798Z,23.90
2022-08-17T20:00:23.083Z,23.79
2022-08-17T20:05:29.168Z,23.75
2022-08-17T20:10:37.354Z,23.71
2022-08-17T20:15:41.959Z,23.72
2022-08-17T20:20:47.333Z,23.76
2022-08-17T20:25:51.593Z,23.79
2022-08-17T20:30:54.644Z,23.80
2022-08-17T20:36:01.074Z,23.75
2022-08-17T20:41:03.876Z,23.69
2022-08-17T20:46:10.952Z,23.61
2022-08-17T20:51:13.232Z,23.55
2022-08-17T20:56:20.246Z,23.48
2022-08-17T21:01:35.106Z,23.38
2022-08-17T21:07:00.355Z,23.18
2022-08-17T21:12:05.545Z,22.99
2022-08-17T21:17:17.635Z,22.84
2022-08-17T21:22:24.244Z,22.72
2022-08-17T21:27:29.567Z,22.59
2022-08-17T21:32:33.852Z,22.49
2022-08-17T21:44:17.254Z,22.22
2022-08-17T21:49:25.986Z,22.16
2022-08-17T21:54:34.522Z,22.15
2022-08-17T21:59:38.531Z,22.14
2022-08-17T22:04:41.656Z,22.15
2022-08-17T22:09:45.601Z,22.12
2022-08-17T22:14:53.966Z,22.08
2022-08-17T22:19:59.588Z,22.00
2022-08-17T22:25:04.591Z,21.93
2022-08-17T22:30:09.885Z,21.82
2022-08-17T22:41:51.920Z,21.63
2022-08-17T22:46:57.835Z,21.52
2022-08-17T22:52:03.404Z,21.43
2022-08-17T22:57:15.377Z,21.37
2022-08-17T23:02:23.364Z,21.34
2022-08-17T23:07:25.813Z,21.35
2022-08-17T23:12:29.021Z,21.38
2022-08-17T23:17:37.233Z,21.36
2022-08-17T23:22:51.204Z,21.28
2022-08-17T23:27:55.783Z,21.20
2022-08-17T23:33:00.998Z,21.15
2022-08-17T23:38:03.380Z,21.13
2022-08-17T23:43:09.932Z,21.11
2022-08-17T23:48:28.479Z,21.06
2022-08-17T23:53:41.766Z,20.97
2022-08-17T23:58:44.681Z,20.83
